Terminal Aerodrome Forecast
Issued by NWS Amarillo, TX

Home | Current Version | Previous Version | Text Only | Print | Product List | Glossary On
Versions: 1 2 3 4 5 6 7 8 9 10 11 12 13 14 15 16 17 18 19 20 21 22 23 24 25 26
000
FTUS44 KAMA 011100 AAA
TAFAMA
TAF AMD
KAMA 011156Z 0112/0212 17006KT 1/2SM FZFG OVC002
     FM011600 18007KT 2SM BR OVC005
     FM011900 06008KT 5SM BR SCT005 OVC008
     FM020200 08008KT 1SM BR OVC004=

USA.gov is the U.S. government's official web portal to all federal, state and local government web resources and services.